TimeCST,TemperatureF,Dew PointF,Humidity,Sea Level PressureIn,VisibilityMPH,Wind Direction,Wind SpeedMPH,Gust SpeedMPH,PrecipitationIn,Events,Conditions,WindDirDegrees,DateUTC
12:56 AM,52.0,46.9,83,30.32,10.0,East,6.9,-,N/A,,Mostly Cloudy,90,2013-11-05 06:56:00
1:56 AM,52.0,46.0,80,30.31,10.0,ESE,9.2,-,N/A,,Clear,110,2013-11-05 07:56:00
2:56 AM,50.0,46.0,86,30.31,10.0,ESE,9.2,-,N/A,,Clear,110,2013-11-05 08:56:00
3:56 AM,53.1,44.1,71,30.31,10.0,ESE,10.4,-,N/A,,Mostly Cloudy,120,2013-11-05 09:56:00
4:56 AM,54.0,43.0,66,30.33,10.0,ESE,10.4,-,N/A,,Overcast,120,2013-11-05 10:56:00
5:56 AM,53.1,41.0,64,30.33,10.0,ESE,10.4,-,N/A,,Overcast,120,2013-11-05 11:56:00
6:00 AM,53.6,41.0,62,30.30,10.0,ESE,10.4,-,N/A,,Overcast,120,2013-11-05 12:00:00
6:56 AM,53.1,41.0,64,30.35,10.0,ESE,9.2,-,N/A,,Overcast,120,2013-11-05 12:56:00
7:56 AM,54.0,42.1,64,30.37,10.0,East,3.5,-,N/A,,Overcast,90,2013-11-05 13:56:00
8:56 AM,57.0,42.1,57,30.38,10.0,East,8.1,-,N/A,,Overcast,100,2013-11-05 14:56:00
9:56 AM,59.0,42.1,53,30.38,10.0,ESE,12.7,-,N/A,,Overcast,120,2013-11-05 15:56:00
10:56 AM,61.0,43.0,52,30.36,10.0,East,10.4,-,N/A,,Overcast,100,2013-11-05 16:56:00
11:56 AM,63.0,46.0,54,30.33,10.0,SE,11.5,-,N/A,,Overcast,130,2013-11-05 17:56:00
12:56 PM,64.0,46.9,54,30.30,10.0,ESE,9.2,-,N/A,,Overcast,120,2013-11-05 18:56:00
1:56 PM,66.9,48.0,51,30.27,10.0,East,10.4,-,N/A,,Overcast,90,2013-11-05 19:56:00
2:56 PM,68.0,48.9,50,30.26,10.0,East,9.2,-,N/A,,Scattered Clouds,90,2013-11-05 20:56:00
3:56 PM,68.0,50.0,52,30.25,10.0,East,9.2,-,N/A,,Scattered Clouds,100,2013-11-05 21:56:00
4:56 PM,62.1,51.1,67,30.24,10.0,ESE,5.8,-,N/A,,Partly Cloudy,110,2013-11-05 22:56:00
5:56 PM,57.9,51.1,78,30.24,10.0,East,8.1,-,N/A,,Partly Cloudy,90,2013-11-05 23:56:00
6:56 PM,57.0,51.1,81,30.25,10.0,East,8.1,-,N/A,,Partly Cloudy,100,2013-11-06 00:56:00
7:56 PM,61.0,51.1,70,30.25,10.0,East,6.9,-,N/A,,Overcast,100,2013-11-06 01:56:00
8:56 PM,57.9,48.9,72,30.26,10.0,ESE,6.9,-,N/A,,Partly Cloudy,120,2013-11-06 02:56:00
9:56 PM,57.9,48.0,70,30.26,10.0,ESE,10.4,-,N/A,,Partly Cloudy,120,2013-11-06 03:56:00
10:56 PM,60.1,46.9,62,30.25,10.0,ESE,8.1,-,N/A,,Mostly Cloudy,120,2013-11-06 04:56:00
11:56 PM,57.0,46.0,67,30.25,10.0,ESE,8.1,-,N/A,,Partly Cloudy,110,2013-11-06 05:56:00